Time;durP1;ratioP1;P1;durP2;ratioP2;P2;SDS_P1;SDS_P2;PMS_P1;PMS_P2;Temp;Humidity;BMP_temperature;BMP_pressure;BME280_temperature;BME280_humidity;BME280_pressure;Samples;Min_cycle;Max_cycle;Signal;HPM_P1;HPM_P2
2024/03/15 00:00:14;;;;;;;7.80;4.50;;;14.90;34.40;;;;;;5084248;28;20201;-87
2024/03/15 00:02:40;;;;;;;7.53;4.37;;;14.80;34.60;;;;;;5085104;28;20180;-84
2024/03/15 00:05:05;;;;;;;8.87;4.10;;;14.90;33.10;;;;;;5079766;28;20196;-87
2024/03/15 00:07:31;;;;;;;8.77;4.13;;;14.80;35.30;;;;;;5080758;28;20192;-87
2024/03/15 00:09:57;;;;;;;7.70;4.10;;;14.70;36.50;;;;;;5085397;28;20169;-87
2024/03/15 00:12:23;;;;;;;5.77;4.03;;;14.70;38.30;;;;;;5077730;28;20654;-86
2024/03/15 00:14:49;;;;;;;7.23;4.13;;;14.80;35.50;;;;;;5074091;28;20263;-86
2024/03/15 00:17:17;;;;;;;5.50;3.93;;;14.70;38.30;;;;;;5074885;28;20238;-87
2024/03/15 00:19:42;;;;;;;6.77;4.17;;;14.70;38.80;;;;;;5075069;28;20171;-87
2024/03/15 00:22:08;;;;;;;6.70;4.10;;;14.80;37.70;;;;;;5074170;28;20207;-86
2024/03/15 00:24:34;;;;;;;6.40;4.00;;;14.80;34.50;;;;;;5074136;28;20312;-87
2024/03/15 00:27:02;;;;;;;5.83;4.53;;;14.80;35.20;;;;;;5073785;28;20172;-87
2024/03/15 00:29:29;;;;;;;8.50;3.97;;;14.80;33.20;;;;;;5073660;28;20540;-86
2024/03/15 00:31:58;;;;;;;7.90;4.37;;;14.80;33.40;;;;;;5073766;28;20200;-87
2024/03/15 00:34:24;;;;;;;7.50;4.43;;;14.80;33.80;;;;;;5074024;28;20176;-86
2024/03/15 00:36:52;;;;;;;8.37;4.43;;;14.90;30.60;;;;;;5073425;28;20176;-87
2024/03/15 00:39:20;;;;;;;6.20;3.90;;;14.80;32.40;;;;;;5073285;28;20206;-86
2024/03/15 00:41:46;;;;;;;8.73;4.33;;;14.80;33.60;;;;;;5079077;28;20515;-85
2024/03/15 00:44:14;;;;;;;7.73;4.30;;;14.80;34.60;;;;;;5093423;28;20179;-87
2024/03/15 00:46:40;;;;;;;8.90;4.17;;;14.70;35.30;;;;;;5093886;28;20195;-86
2024/03/15 00:49:06;;;;;;;8.73;4.00;;;14.70;37.30;;;;;;5093499;28;20620;-84
2024/03/15 00:51:31;;;;;;;7.70;4.43;;;14.80;36.00;;;;;;5093388;28;20172;-85
2024/03/15 00:53:57;;;;;;;5.80;3.87;;;14.80;35.10;;;;;;5093162;28;20176;-87
2024/03/15 00:56:23;;;;;;;6.77;4.23;;;14.80;34.30;;;;;;5093098;28;20693;-86
2024/03/15 00:58:50;;;;;;;8.47;4.20;;;14.80;35.60;;;;;;5093283;28;20211;-86
2024/03/15 01:01:15;;;;;;;8.30;4.23;;;14.80;36.20;;;;;;5093863;28;20262;-84
2024/03/15 01:03:41;;;;;;;6.63;4.37;;;14.70;36.10;;;;;;5093623;28;20228;-87
2024/03/15 01:06:07;;;;;;;6.07;3.90;;;14.70;37.40;;;;;;5092872;28;20659;-87
2024/03/15 01:08:33;;;;;;;5.93;4.30;;;14.70;36.10;;;;;;5093129;28;20207;-85
2024/03/15 01:10:59;;;;;;;6.80;4.53;;;14.70;35.80;;;;;;5093060;28;20172;-84
2024/03/15 01:13:25;;;;;;;5.93;3.93;;;14.70;37.00;;;;;;5093108;28;20167;-88
2024/03/15 01:15:50;;;;;;;6.97;4.20;;;14.70;37.10;;;;;;5093153;28;20171;-87
2024/03/15 01:18:16;;;;;;;7.63;4.30;;;14.70;38.10;;;;;;5093367;28;20199;-86
2024/03/15 01:20:42;;;;;;;5.93;4.30;;;14.70;37.70;;;;;;5093514;28;20218;-86
2024/03/15 01:23:08;;;;;;;9.20;4.37;;;14.70;37.60;;;;;;5093995;28;20251;-87
2024/03/15 01:25:39;;;;;;;5.33;3.80;;;14.80;35.80;;;;;;5094545;28;20194;-85
2024/03/15 01:28:06;;;;;;;6.70;4.00;;;14.70;37.60;;;;;;5093102;28;20180;-86
2024/03/15 01:30:32;;;;;;;6.77;4.20;;;14.80;35.20;;;;;;5093204;28;20167;-86
2024/03/15 01:32:58;;;;;;;7.30;4.40;;;14.80;35.90;;;;;;5092402;28;20199;-87
2024/03/15 01:35:33;;;;;;;6.23;4.33;;;14.80;36.00;;;;;;5092324;28;20219;-86
2024/03/15 01:38:02;;;;;;;8.17;4.27;;;14.70;38.20;;;;;;5091594;28;20211;-87
2024/03/15 01:40:29;;;;;;;6.40;3.83;;;14.70;39.50;;;;;;5092144;28;20172;-86
2024/03/15 01:42:55;;;;;;;7.40;4.20;;;14.70;39.20;;;;;;5093727;28;20178;-85
2024/03/15 01:45:21;;;;;;;6.53;4.27;;;14.70;37.50;;;;;;5093000;28;20175;-86
2024/03/15 01:47:46;;;;;;;6.90;4.37;;;14.60;43.00;;;;;;5092055;28;20180;-84
2024/03/15 01:50:13;;;;;;;7.70;4.17;;;14.70;36.10;;;;;;5093550;28;20237;-85
2024/03/15 01:52:44;;;;;;;5.13;3.90;;;14.60;30.70;;;;;;5092538;28;20202;-86
2024/03/15 01:55:10;;;;;;;7.30;4.20;;;14.60;31.90;;;;;;5090490;28;20602;-85
2024/03/15 01:57:39;;;;;;;7.83;4.40;;;14.70;28.60;;;;;;5084483;28;20234;-86
2024/03/15 02:00:10;;;;;;;5.97;4.23;;;14.70;26.10;;;;;;5082653;28;20179;-86
2024/03/15 02:02:36;;;;;;;10.53;4.33;;;14.60;24.00;;;;;;5082280;28;20186;-87
2024/03/15 02:05:02;;;;;;;5.50;4.03;;;14.50;25.10;;;;;;5082418;28;20235;-85
2024/03/15 02:07:27;;;;;;;7.03;4.20;;;14.60;20.70;;;;;;5074252;28;20196;-86
2024/03/15 02:09:55;;;;;;;9.97;4.03;;;14.50;20.50;;;;;;5071242;28;20180;-85
2024/03/15 02:12:21;;;;;;;7.03;4.43;;;14.60;19.60;;;;;;5071048;28;20172;-85
2024/03/15 02:14:49;;;;;;;5.63;4.40;;;14.60;21.10;;;;;;5071378;28;20176;-85
2024/03/15 02:17:16;;;;;;;5.47;3.90;;;14.60;23.00;;;;;;5071230;28;20179;-86
2024/03/15 02:19:42;;;;;;;7.60;4.30;;;14.60;23.50;;;;;;5071415;28;20184;-85
2024/03/15 02:22:08;;;;;;;9.00;4.20;;;14.60;21.30;;;;;;5071774;28;20179;-86
2024/03/15 02:24:36;;;;;;;6.90;4.30;;;14.50;24.00;;;;;;5071201;28;20192;-85
2024/03/15 02:27:03;;;;;;;6.73;4.10;;;14.50;25.70;;;;;;5071766;28;20191;-86
2024/03/15 02:29:29;;;;;;;8.23;4.10;;;14.60;25.90;;;;;;5071147;28;20172;-87
2024/03/15 02:31:55;;;;;;;6.93;4.03;;;14.60;25.20;;;;;;5071855;28;20180;-86
2024/03/15 02:34:21;;;;;;;6.83;3.93;;;14.50;26.00;;;;;;5071026;28;20190;-87
2024/03/15 02:36:46;;;;;;;6.40;3.83;;;14.50;28.60;;;;;;5071931;28;20172;-86
2024/03/15 02:39:16;;;;;;;7.83;4.20;;;14.50;30.80;;;;;;5071242;28;20216;-84
2024/03/15 02:41:48;;;;;;;7.03;3.87;;;14.50;32.10;;;;;;5071941;28;20621;-85
2024/03/15 02:44:15;;;;;;;8.37;4.13;;;14.40;34.60;;;;;;5071038;28;20179;-85
2024/03/15 02:46:41;;;;;;;6.43;3.80;;;14.40;35.00;;;;;;5071516;28;20234;-86
2024/03/15 02:49:06;;;;;;;8.10;4.20;;;14.40;37.20;;;;;;5070730;28;20176;-85
2024/03/15 02:51:32;;;;;;;6.47;4.00;;;14.40;35.60;;;;;;5070776;28;20177;-87
2024/03/15 02:53:58;;;;;;;6.60;3.60;;;14.20;34.70;;;;;;5070654;28;20179;-86
2024/03/15 02:56:24;;;;;;;5.93;3.83;;;14.30;40.50;;;;;;5071545;28;20590;-86
2024/03/15 02:58:49;;;;;;;6.33;3.50;;;14.30;42.10;;;;;;5071491;28;20586;-87
2024/03/15 03:01:15;;;;;;;7.23;4.00;;;14.20;44.60;;;;;;5071222;28;20172;-86
2024/03/15 03:03:44;;;;;;;9.20;4.33;;;14.30;45.60;;;;;;5071533;28;20264;-84
2024/03/15 03:06:10;;;;;;;6.67;3.63;;;14.10;47.90;;;;;;5072618;28;20683;-85
2024/03/15 03:08:36;;;;;;;5.67;3.57;;;14.20;49.90;;;;;;5075281;28;20184;-85
2024/03/15 03:11:06;;;;;;;6.17;3.77;;;14.30;49.20;;;;;;5075030;28;20641;-86
2024/03/15 03:13:34;;;;;;;6.37;3.57;;;14.30;48.00;;;;;;5075654;28;20176;-86
2024/03/15 03:16:00;;;;;;;6.77;3.97;;;14.20;50.60;;;;;;5074988;28;20667;-87
2024/03/15 03:18:26;;;;;;;4.77;3.67;;;14.20;52.60;;;;;;5074995;28;20208;-87
2024/03/15 03:20:52;;;;;;;7.63;3.93;;;14.20;53.20;;;;;;5075941;28;20168;-85
2024/03/15 03:23:18;;;;;;;7.43;3.73;;;14.20;53.80;;;;;;5075276;28;20180;-87
2024/03/15 03:25:44;;;;;;;8.30;3.97;;;14.20;54.90;;;;;;5074663;28;20214;-86
2024/03/15 03:28:10;;;;;;;5.37;3.63;;;14.20;55.50;;;;;;5076111;28;20253;-85
2024/03/15 03:30:36;;;;;;;5.47;3.77;;;14.30;51.80;;;;;;5074123;28;20179;-87
2024/03/15 03:33:03;;;;;;;5.97;3.30;;;14.20;52.80;;;;;;5074342;28;20164;-85
2024/03/15 03:35:28;;;;;;;5.77;3.50;;;14.30;54.10;;;;;;5074723;28;20671;-86
2024/03/15 03:37:54;;;;;;;6.23;3.10;;;14.30;52.60;;;;;;5074763;28;20200;-85
2024/03/15 03:40:24;;;;;;;7.27;3.77;;;14.30;53.30;;;;;;5075893;28;20179;-87
2024/03/15 03:42:50;;;;;;;5.93;3.57;;;14.30;52.30;;;;;;5074791;28;20172;-86
2024/03/15 03:45:17;;;;;;;5.37;3.27;;;14.30;54.70;;;;;;5073044;28;20191;-87
2024/03/15 03:47:48;;;;;;;7.03;4.10;;;14.20;58.40;;;;;;5075242;28;20168;-85
2024/03/15 03:50:13;;;;;;;6.23;3.57;;;14.40;56.10;;;;;;5073892;28;20613;-87
2024/03/15 03:52:40;;;;;;;6.30;3.10;;;14.40;54.40;;;;;;5074594;28;20176;-86
2024/03/15 03:55:07;;;;;;;6.63;4.20;;;14.30;56.00;;;;;;5074609;28;20180;-86
2024/03/15 03:57:34;;;;;;;5.23;3.30;;;14.40;54.10;;;;;;5074352;28;20168;-86
2024/03/15 04:00:04;;;;;;;9.93;4.00;;;14.30;58.00;;;;;;5074542;28;20187;-86
2024/03/15 04:02:31;;;;;;;7.70;3.67;;;14.20;62.70;;;;;;5075110;28;20254;-85
2024/03/15 04:04:57;;;;;;;7.57;3.67;;;14.30;64.10;;;;;;5073173;28;20207;-86
2024/03/15 04:07:30;;;;;;;6.27;3.53;;;14.30;61.50;;;;;;5074229;28;20168;-86
2024/03/15 04:09:57;;;;;;;8.60;3.73;;;14.30;62.40;;;;;;5073979;28;20248;-85
2024/03/15 04:12:22;;;;;;;6.67;3.17;;;14.30;62.90;;;;;;5073099;28;20221;-87
2024/03/15 04:14:51;;;;;;;7.27;3.70;;;14.30;59.00;;;;;;5073594;28;20845;-86
2024/03/15 04:17:19;;;;;;;5.90;3.40;;;14.30;59.20;;;;;;5072813;28;20180;-85
2024/03/15 04:19:45;;;;;;;6.17;3.43;;;14.20;62.80;;;;;;5073413;28;20183;-85
2024/03/15 04:22:11;;;;;;;5.60;3.73;;;14.40;58.20;;;;;;5073908;28;20175;-84
2024/03/15 04:24:38;;;;;;;8.00;3.63;;;14.30;58.20;;;;;;5071731;28;20175;-86
2024/03/15 04:27:04;;;;;;;4.93;3.20;;;14.20;64.60;;;;;;5073839;28;20488;-86
2024/03/15 04:29:30;;;;;;;5.13;3.70;;;14.30;62.40;;;;;;5073198;28;20187;-86
2024/03/15 04:31:57;;;;;;;6.47;3.40;;;14.20;65.10;;;;;;5072950;28;20179;-85
2024/03/15 04:34:27;;;;;;;6.30;3.13;;;14.20;68.90;;;;;;5072931;28;20179;-86
2024/03/15 04:36:53;;;;;;;7.00;3.60;;;14.10;70.10;;;;;;5073526;28;20681;-86
2024/03/15 04:39:19;;;;;;;6.37;3.20;;;14.10;74.00;;;;;;5074504;28;20203;-84
2024/03/15 04:41:45;;;;;;;5.20;3.03;;;14.10;75.20;;;;;;5072900;28;20584;-86
2024/03/15 04:44:10;;;;;;;7.10;3.70;;;14.10;79.70;;;;;;5073309;28;20207;-86
2024/03/15 04:46:36;;;;;;;5.90;3.30;;;14.00;81.10;;;;;;5073582;28;20612;-85
2024/03/15 04:49:02;;;;;;;4.53;3.30;;;14.10;80.20;;;;;;5073541;28;20179;-86
2024/03/15 04:51:30;;;;;;;6.70;3.20;;;14.10;80.40;;;;;;5072590;28;20221;-86
2024/03/15 04:53:55;;;;;;;7.67;3.50;;;14.10;81.50;;;;;;5073360;28;20171;-85
2024/03/15 04:56:21;;;;;;;5.87;3.37;;;14.20;74.30;;;;;;5073464;28;20184;-84
2024/03/15 04:58:47;;;;;;;4.03;2.90;;;14.10;76.80;;;;;;5072622;28;20216;-86
2024/03/15 05:01:13;;;;;;;5.43;3.30;;;14.00;82.00;;;;;;5073254;28;20640;-86
2024/03/15 05:03:38;;;;;;;6.30;3.27;;;14.10;82.40;;;;;;5072177;28;20249;-86
2024/03/15 05:06:04;;;;;;;5.23;2.83;;;14.20;78.40;;;;;;5073726;28;20260;-87
2024/03/15 05:08:31;;;;;;;3.93;2.53;;;14.10;74.40;;;;;;5072531;28;20524;-87
2024/03/15 05:10:57;;;;;;;4.50;3.00;;;14.10;79.20;;;;;;5071589;28;20168;-87
2024/03/15 05:13:24;;;;;;;5.80;2.63;;;14.20;76.20;;;;;;5072353;28;20233;-86
2024/03/15 05:15:51;;;;;;;4.77;2.67;;;14.10;81.70;;;;;;5072418;28;20168;-87
2024/03/15 05:18:16;;;;;;;5.47;3.10;;;14.10;80.90;;;;;;5071744;28;20260;-86
2024/03/15 05:20:42;;;;;;;4.40;2.87;;;14.00;85.00;;;;;;5072804;28;20204;-86
2024/03/15 05:23:08;;;;;;;5.07;2.77;;;14.10;85.20;;;;;;5071438;28;20203;-86
2024/03/15 05:25:36;;;;;;;7.33;3.10;;;14.00;84.60;;;;;;5071770;28;20640;-87
2024/03/15 05:28:02;;;;;;;6.40;2.87;;;14.10;85.40;;;;;;5071734;28;20177;-86
2024/03/15 05:30:27;;;;;;;7.07;2.73;;;14.00;86.30;;;;;;5072257;28;20266;-87
2024/03/15 05:32:53;;;;;;;7.73;2.70;;;13.90;91.30;;;;;;5072515;28;20268;-87
2024/03/15 05:35:20;;;;;;;6.17;2.70;;;13.90;92.00;;;;;;5072686;28;20656;-86
2024/03/15 05:37:46;;;;;;;5.03;2.70;;;14.00;88.70;;;;;;5071485;28;20200;-86
2024/03/15 05:40:12;;;;;;;9.30;2.87;;;13.90;91.20;;;;;;5072663;28;20173;-85
2024/03/15 05:42:38;;;;;;;4.80;2.80;;;13.90;91.80;;;;;;5072143;28;20180;-85
2024/03/15 05:45:05;;;;;;;8.47;2.70;;;13.90;92.70;;;;;;5072959;28;20226;-85
2024/03/15 05:47:30;;;;;;;5.07;2.63;;;14.00;92.60;;;;;;5073490;28;20640;-86
2024/03/15 05:49:56;;;;;;;3.40;2.50;;;14.00;91.90;;;;;;5071966;28;20172;-87
2024/03/15 05:52:22;;;;;;;5.17;2.87;;;14.00;91.20;;;;;;5071544;28;20170;-85
2024/03/15 05:54:48;;;;;;;7.30;2.83;;;14.00;91.90;;;;;;5071988;28;20228;-87
2024/03/15 05:57:13;;;;;;;7.60;2.90;;;13.90;92.90;;;;;;5071794;28;20176;-85
2024/03/15 05:59:39;;;;;;;6.97;2.93;;;13.90;95.60;;;;;;5071427;28;20947;-86
2024/03/15 06:02:05;;;;;;;5.90;2.57;;;13.90;94.20;;;;;;5070846;28;20180;-85
2024/03/15 06:04:33;;;;;;;3.67;2.63;;;13.80;93.40;;;;;;5071776;28;20285;-86
2024/03/15 06:07:00;;;;;;;4.97;2.97;;;14.00;91.50;;;;;;5071209;28;20714;-85
2024/03/15 06:09:29;;;;;;;4.87;2.70;;;14.00;92.10;;;;;;5073127;28;20232;-86
2024/03/15 06:11:55;;;;;;;4.50;2.40;;;14.00;92.70;;;;;;5070791;28;20175;-85
2024/03/15 06:14:21;;;;;;;6.83;3.17;;;14.00;91.60;;;;;;5072300;28;20618;-86
2024/03/15 06:16:47;;;;;;;5.67;2.50;;;14.00;92.10;;;;;;5071046;28;20178;-87
2024/03/15 06:19:12;;;;;;;4.90;2.60;;;14.00;91.80;;;;;;5071654;28;20196;-86
2024/03/15 06:21:38;;;;;;;5.93;2.97;;;14.00;92.20;;;;;;5070587;28;20162;-86
2024/03/15 06:24:06;;;;;;;7.27;2.90;;;13.90;93.70;;;;;;5071432;28;20180;-85
2024/03/15 06:26:32;;;;;;;6.67;2.97;;;14.00;95.10;;;;;;5071855;28;20178;-86
2024/03/15 06:28:59;;;;;;;5.67;2.60;;;13.90;94.90;;;;;;5071636;28;20172;-86
2024/03/15 06:31:26;;;;;;;5.07;2.47;;;13.90;95.40;;;;;;5071282;28;20171;-85
2024/03/15 06:33:56;;;;;;;5.50;2.83;;;14.00;94.20;;;;;;5071212;28;20183;-84
2024/03/15 06:36:29;;;;;;;5.37;2.47;;;13.90;94.90;;;;;;5070874;28;20168;-86
2024/03/15 06:38:57;;;;;;;7.90;2.87;;;13.90;95.90;;;;;;5072292;28;20632;-85
2024/03/15 06:44:00;;;;;;;7.00;3.20;;;14.00;92.40;;;;;;5077181;28;20179;-86
2024/03/15 06:46:30;;;;;;;5.53;2.50;;;14.00;90.40;;;;;;5075135;28;20643;-85
2024/03/15 06:48:57;;;;;;;5.13;2.60;;;13.90;93.20;;;;;;5075137;28;20206;-89
2024/03/15 06:54:12;;;;;;;6.43;2.73;;;14.00;93.50;;;;;;5076725;28;20222;-84
2024/03/15 06:56:38;;;;;;;6.43;2.97;;;14.00;92.30;;;;;;5076617;28;20628;-84
2024/03/15 06:59:11;;;;;;;5.40;2.50;;;14.10;92.50;;;;;;5083419;28;20270;-86
2024/03/15 07:01:37;;;;;;;4.13;2.47;;;14.00;92.50;;;;;;5083597;28;20221;-86
2024/03/15 07:04:07;;;;;;;6.17;2.47;;;14.10;92.60;;;;;;5085017;28;20184;-87
2024/03/15 07:06:33;;;;;;;4.47;2.87;;;14.00;93.80;;;;;;5084323;28;20188;-89
2024/03/15 07:09:00;;;;;;;8.47;3.00;;;14.10;94.30;;;;;;5083773;28;20225;-86
2024/03/15 07:11:34;;;;;;;3.77;2.60;;;14.10;92.40;;;;;;5083756;28;20211;-86
2024/03/15 07:14:04;;;;;;;8.50;3.50;;;14.30;90.40;;;;;;5074543;28;20584;-88
2024/03/15 07:16:31;;;;;;;4.57;2.40;;;14.30;86.50;;;;;;5073523;28;20225;-87
2024/03/15 07:18:57;;;;;;;3.90;2.60;;;14.30;84.80;;;;;;5077928;28;20210;-87
2024/03/15 07:21:23;;;;;;;6.87;2.93;;;14.30;89.20;;;;;;5094579;28;20205;-87
2024/03/15 07:23:48;;;;;;;5.27;2.53;;;14.20;93.20;;;;;;5093559;28;20670;-87
2024/03/15 07:26:15;;;;;;;5.50;2.90;;;14.20;94.00;;;;;;5095410;28;20272;-87
2024/03/15 07:28:41;;;;;;;4.27;2.57;;;14.20;94.60;;;;;;5095014;28;20236;-87
2024/03/15 07:31:08;;;;;;;4.77;2.50;;;14.20;93.30;;;;;;5094676;28;20630;-87
2024/03/15 07:33:34;;;;;;;4.53;2.60;;;14.20;94.60;;;;;;5095680;28;20262;-87
2024/03/15 07:36:01;;;;;;;4.33;2.50;;;14.20;96.30;;;;;;5095850;28;20267;-87
2024/03/15 07:38:30;;;;;;;7.10;2.73;;;14.20;97.50;;;;;;5096894;28;20203;-87
2024/03/15 07:40:57;;;;;;;3.80;2.40;;;14.20;97.90;;;;;;5095355;28;20523;-87
2024/03/15 07:43:23;;;;;;;5.53;2.53;;;14.30;99.50;;;;;;5095070;28;20201;-86
2024/03/15 07:45:49;;;;;;;4.50;2.80;;;14.20;99.30;;;;;;5094762;28;20172;-87
2024/03/15 07:48:16;;;;;;;6.40;2.57;;;14.20;99.90;;;;;;5094419;28;20248;-87
2024/03/15 07:50:42;;;;;;;7.37;2.57;;;14.20;99.70;;;;;;5094589;28;20643;-87
2024/03/15 07:53:08;;;;;;;4.33;2.60;;;14.30;97.40;;;;;;5093482;28;20221;-87
2024/03/15 07:55:37;;;;;;;6.27;2.73;;;14.40;93.90;;;;;;5094881;28;20179;-87
2024/03/15 07:58:03;;;;;;;4.70;2.50;;;14.40;91.90;;;;;;5096027;28;20216;-88
2024/03/15 08:00:31;;;;;;;3.50;2.40;;;14.50;91.80;;;;;;5094603;28;20340;-88
2024/03/15 08:02:57;;;;;;;6.83;2.43;;;14.50;88.30;;;;;;5094524;28;20206;-87
2024/03/15 08:05:27;;;;;;;4.73;2.80;;;14.50;82.80;;;;;;5094555;28;20194;-87
2024/03/15 08:07:56;;;;;;;5.67;2.23;;;14.30;86.70;;;;;;5094027;28;20175;-89
2024/03/15 08:10:22;;;;;;;4.30;1.80;;;14.20;92.50;;;;;;5095329;28;20175;-88
2024/03/15 08:12:49;;;;;;;4.67;1.90;;;14.20;90.90;;;;;;5094904;28;20632;-87
2024/03/15 08:15:15;;;;;;;4.67;2.23;;;14.10;93.20;;;;;;5094800;28;20714;-86
2024/03/15 08:17:40;;;;;;;5.07;2.40;;;14.20;95.10;;;;;;5094519;28;20171;-87
2024/03/15 08:20:10;;;;;;;4.10;2.33;;;14.30;94.60;;;;;;5094950;28;20287;-87
2024/03/15 08:22:37;;;;;;;5.23;2.20;;;14.30;93.00;;;;;;5093748;28;20195;-86
2024/03/15 08:25:06;;;;;;;4.07;2.03;;;14.30;92.30;;;;;;5095119;28;20654;-86
2024/03/15 08:27:33;;;;;;;5.50;2.07;;;14.50;89.50;;;;;;5094379;28;20270;-86
2024/03/15 08:30:00;;;;;;;5.27;2.17;;;14.50;80.50;;;;;;5094447;28;20190;-87
2024/03/15 08:32:29;;;;;;;7.13;2.33;;;14.50;83.70;;;;;;5095299;28;20681;-86
2024/03/15 08:34:58;;;;;;;7.07;2.40;;;14.60;80.80;;;;;;5094583;28;20187;-87
2024/03/15 08:37:24;;;;;;;8.57;2.83;;;14.60;83.10;;;;;;5093723;28;20647;-86
2024/03/15 08:39:51;;;;;;;5.13;2.30;;;14.70;76.70;;;;;;5094729;28;20739;-87
2024/03/15 08:42:17;;;;;;;5.13;2.53;;;14.80;74.00;;;;;;5093913;28;20167;-86
2024/03/15 08:44:43;;;;;;;6.17;2.77;;;14.80;70.10;;;;;;5094361;28;20538;-86
2024/03/15 08:47:09;;;;;;;4.13;2.03;;;14.90;63.40;;;;;;5095275;28;20684;-88
2024/03/15 08:49:36;;;;;;;5.47;2.13;;;14.90;64.60;;;;;;5094141;28;20200;-87
2024/03/15 08:52:05;;;;;;;6.10;1.97;;;14.80;61.90;;;;;;5093818;28;20171;-87
2024/03/15 08:54:33;;;;;;;4.10;1.83;;;14.80;58.70;;;;;;5094670;28;20631;-86
2024/03/15 08:57:04;;;;;;;6.00;1.70;;;14.70;58.60;;;;;;5095005;28;20659;-87
2024/03/15 08:59:30;;;;;;;3.37;1.93;;;14.70;58.80;;;;;;5093573;28;20619;-87
2024/03/15 09:01:58;;;;;;;4.93;2.10;;;14.80;62.80;;;;;;5093399;28;20173;-89
2024/03/15 09:04:24;;;;;;;4.23;2.17;;;14.80;62.30;;;;;;5105514;28;20190;-86
2024/03/15 09:06:51;;;;;;;4.80;2.07;;;14.90;64.20;;;;;;5113876;28;20633;-87
2024/03/15 09:09:21;;;;;;;3.70;2.10;;;14.90;63.30;;;;;;5113717;28;20273;-86
2024/03/15 09:11:47;;;;;;;5.23;2.50;;;15.00;57.70;;;;;;5114097;28;20178;-87
2024/03/15 09:14:17;;;;;;;4.63;2.03;;;15.10;55.80;;;;;;5114118;28;20167;-87
2024/03/15 09:16:50;;;;;;;4.13;2.00;;;15.10;52.30;;;;;;5113595;28;20274;-87
2024/03/15 09:19:21;;;;;;;5.77;2.50;;;15.10;49.50;;;;;;5113272;28;20295;-87
2024/03/15 09:21:48;;;;;;;3.50;1.63;;;15.20;48.20;;;;;;5113797;28;20175;-87
2024/03/15 09:24:15;;;;;;;4.60;2.13;;;15.20;46.20;;;;;;5113919;28;20175;-87
2024/03/15 09:26:41;;;;;;;5.50;1.83;;;15.20;40.70;;;;;;5118520;28;20162;-87
2024/03/15 09:29:07;;;;;;;4.63;1.77;;;15.40;34.00;;;;;;5113739;28;20175;-87
2024/03/15 09:31:35;;;;;;;3.67;1.50;;;15.50;25.80;;;;;;5113669;28;20585;-88
2024/03/15 09:34:02;;;;;;;4.90;1.80;;;15.50;21.20;;;;;;5114449;28;20245;-87
2024/03/15 09:36:31;;;;;;;3.40;1.60;;;15.60;16.20;;;;;;5113868;28;20175;-87
2024/03/15 09:38:58;;;;;;;7.63;2.40;;;15.60;13.80;;;;;;5113457;28;20211;-87
2024/03/15 09:41:25;;;;;;;5.30;2.00;;;15.60;12.10;;;;;;5112960;28;20174;-87
2024/03/15 09:43:52;;;;;;;3.40;1.60;;;15.50;12.90;;;;;;5113494;28;20271;-87
2024/03/15 09:46:20;;;;;;;3.67;1.47;;;15.50;13.40;;;;;;5113155;28;20178;-88
2024/03/15 09:48:51;;;;;;;7.20;1.77;;;15.50;11.40;;;;;;5112631;28;20175;-87
2024/03/15 09:51:17;;;;;;;3.93;1.50;;;15.60;8.80;;;;;;5113005;28;20516;-87
2024/03/15 09:53:47;;;;;;;5.23;1.60;;;15.60;5.30;;;;;;5090536;28;20265;-87
2024/03/15 09:56:18;;;;;;;5.23;1.70;;;15.50;6.30;;;;;;5093000;28;20271;-87
2024/03/15 09:58:49;;;;;;;5.77;1.70;;;15.40;6.90;;;;;;5092605;28;20219;-86
2024/03/15 10:01:15;;;;;;;5.13;1.50;;;15.40;8.10;;;;;;5093244;28;20186;-87
2024/03/15 10:03:50;;;;;;;4.80;1.50;;;15.50;2.80;;;;;;5092616;28;20195;-87
2024/03/15 10:06:20;;;;;;;6.03;1.77;;;15.60;1.00;;;;;;5093133;28;20202;-86
2024/03/15 10:08:46;;;;;;;5.87;1.50;;;15.70;1.00;;;;;;5093053;28;20184;-87
2024/03/15 10:11:11;;;;;;;6.40;1.60;;;15.80;1.00;;;;;;5093044;28;20643;-87
2024/03/15 10:13:37;;;;;;;5.10;1.43;;;15.70;1.00;;;;;;5092465;28;20175;-88
2024/03/15 10:16:08;;;;;;;4.53;1.80;;;15.60;3.60;;;;;;5091655;28;20173;-86
2024/03/15 10:18:38;;;;;;;5.03;1.83;;;15.60;6.40;;;;;;5092155;28;20237;-86
2024/03/15 10:21:05;;;;;;;5.77;1.70;;;15.70;4.00;;;;;;5092370;28;20511;-87
2024/03/15 10:23:31;;;;;;;5.83;1.50;;;15.60;5.90;;;;;;5091730;28;20175;-88
2024/03/15 10:25:58;;;;;;;5.13;1.53;;;15.60;10.90;;;;;;5092276;28;20586;-88
2024/03/15 10:28:24;;;;;;;5.30;1.37;;;15.70;11.50;;;;;;5092320;28;20172;-86
2024/03/15 10:30:49;;;;;;;4.17;1.40;;;15.70;12.40;;;;;;5092497;28;20678;-87
2024/03/15 10:33:16;;;;;;;5.60;1.90;;;15.70;16.60;;;;;;5091773;28;20210;-87
2024/03/15 10:35:42;;;;;;;4.90;1.80;;;15.60;21.60;;;;;;5092209;28;20207;-88
2024/03/15 10:38:15;;;;;;;5.27;1.70;;;15.60;22.20;;;;;;5091789;28;20215;-87
2024/03/15 10:40:41;;;;;;;7.27;1.60;;;15.50;26.30;;;;;;5091939;28;20495;-87
2024/03/15 10:43:12;;;;;;;3.13;1.50;;;15.50;26.40;;;;;;5091743;28;20163;-88
2024/03/15 10:45:39;;;;;;;4.43;1.47;;;15.60;22.10;;;;;;5091920;28;20531;-87
2024/03/15 10:48:09;;;;;;;4.73;1.70;;;15.70;11.50;;;;;;5091693;28;20274;-87
2024/03/15 10:50:36;;;;;;;8.87;1.40;;;15.90;10.10;;;;;;5091896;28;20176;-86
2024/03/15 10:53:08;;;;;;;5.27;1.67;;;16.00;4.30;;;;;;5092048;28;20179;-87
2024/03/15 10:55:34;;;;;;;7.00;1.90;;;16.00;1.10;;;;;;5095350;28;20181;-85
2024/03/15 10:58:05;;;;;;;5.00;1.70;;;16.00;1.00;;;;;;5096332;28;20207;-88
2024/03/15 11:00:31;;;;;;;5.63;2.17;;;16.20;1.00;;;;;;5091720;28;20167;-87
2024/03/15 11:03:13;;;;;;;6.30;2.00;;;16.10;1.00;;;;;;5091258;28;20198;-87
2024/03/15 11:05:39;;;;;;;3.30;1.60;;;16.10;5.50;;;;;;5091643;28;20190;-87
2024/03/15 11:08:16;;;;;;;5.07;1.63;;;16.10;4.60;;;;;;5092785;28;20172;-87
2024/03/15 11:10:54;;;;;;;7.20;1.97;;;16.00;5.10;;;;;;5091677;28;20580;-87
2024/03/15 11:13:23;;;;;;;7.23;2.03;;;16.10;7.10;;;;;;5092056;28;20275;-87
2024/03/15 11:15:49;;;;;;;8.17;1.90;;;16.10;7.50;;;;;;5075404;28;20685;-86
2024/03/15 11:18:18;;;;;;;6.17;1.80;;;16.20;3.50;;;;;;5091876;28;20264;-88
2024/03/15 11:20:56;;;;;;;6.23;2.30;;;16.20;1.00;;;;;;5093850;28;20171;-87
2024/03/15 11:23:26;;;;;;;7.47;1.87;;;16.10;4.90;;;;;;5091954;28;20262;-87
2024/03/15 11:25:57;;;;;;;4.83;1.60;;;16.10;3.10;;;;;;5091712;28;20659;-88
2024/03/15 11:28:24;;;;;;;4.10;1.70;;;16.20;1.00;;;;;;5095055;28;20175;-87
2024/03/15 11:30:49;;;;;;;7.07;1.80;;;16.20;1.00;;;;;;5094979;28;20328;-87
2024/03/15 11:33:15;;;;;;;6.93;1.80;;;16.40;1.00;;;;;;5095323;28;20183;-88
2024/03/15 11:35:43;;;;;;;7.57;1.80;;;16.60;1.00;;;;;;5094976;28;20217;-88
2024/03/15 11:38:17;;;;;;;6.27;1.83;;;16.70;1.00;;;;;;5095015;28;20212;-88
2024/03/15 11:40:43;;;;;;;5.67;1.63;;;16.70;1.00;;;;;;5094844;28;20229;-88
2024/03/15 11:43:09;;;;;;;5.17;1.80;;;16.60;1.00;;;;;;5095930;28;20168;-87
2024/03/15 11:45:37;;;;;;;3.67;0.90;;;16.50;1.00;;;;;;5094862;28;20215;-87
2024/03/15 11:48:16;;;;;;;1.67;0.70;;;16.00;1.00;;;;;;5094759;28;20187;-88
2024/03/15 11:50:45;;;;;;;2.40;1.10;;;15.40;1.00;;;;;;5094981;28;20167;-85
2024/03/15 11:53:12;;;;;;;3.03;1.10;;;15.00;1.00;;;;;;5094929;28;20191;-86
2024/03/15 11:55:38;;;;;;;4.07;1.50;;;14.90;1.00;;;;;;5095137;28;20204;-85
2024/03/15 11:58:05;;;;;;;3.07;1.20;;;15.00;1.00;;;;;;5094429;28;20204;-86
2024/03/15 12:00:36;;;;;;;2.80;1.30;;;14.70;1.00;;;;;;5094461;28;20168;-87
2024/03/15 12:03:04;;;;;;;3.93;1.20;;;14.50;3.50;;;;;;5092192;28;20549;-85
2024/03/15 12:05:35;;;;;;;5.97;1.40;;;14.40;11.70;;;;;;5085365;28;20211;-87
2024/03/15 12:08:02;;;;;;;5.30;1.43;;;14.30;23.70;;;;;;5095191;28;20174;-87
2024/03/15 12:10:28;;;;;;;4.07;1.60;;;14.20;39.80;;;;;;5094798;28;20175;-88
2024/03/15 12:12:53;;;;;;;3.30;1.40;;;14.40;45.80;;;;;;5095750;28;20274;-87
2024/03/15 12:15:30;;;;;;;5.10;1.93;;;14.50;47.40;;;;;;5094107;28;20256;-87
2024/03/15 12:17:59;;;;;;;3.80;1.63;;;14.60;51.40;;;;;;5094229;28;20177;-86
2024/03/15 12:20:26;;;;;;;9.10;2.70;;;14.50;60.60;;;;;;5094938;28;20182;-87
2024/03/15 12:22:55;;;;;;;9.00;3.00;;;14.60;72.00;;;;;;5094722;28;20614;-86
2024/03/15 12:25:26;;;;;;;6.73;2.43;;;14.70;81.90;;;;;;5094173;28;20176;-87
2024/03/15 12:27:52;;;;;;;7.53;2.47;;;14.60;82.40;;;;;;5094505;28;20182;-87
2024/03/15 12:30:17;;;;;;;6.30;2.80;;;14.60;94.50;;;;;;5093544;28;20179;-87
2024/03/15 12:32:43;;;;;;;9.00;2.80;;;14.50;93.80;;;;;;5094192;28;20184;-88
2024/03/15 12:35:09;;;;;;;8.97;3.13;;;14.60;90.10;;;;;;5094429;28;20175;-89
2024/03/15 12:37:35;;;;;;;6.53;2.40;;;14.70;90.30;;;;;;5094167;28;20308;-88
2024/03/15 12:40:02;;;;;;;5.43;2.27;;;14.70;91.30;;;;;;5093288;28;20255;-87
2024/03/15 12:42:29;;;;;;;6.23;1.93;;;14.70;81.40;;;;;;5094082;28;20210;-88
2024/03/15 12:44:55;;;;;;;7.27;1.90;;;14.80;74.00;;;;;;5093953;28;20185;-87
2024/03/15 12:47:20;;;;;;;6.93;2.37;;;14.90;72.50;;;;;;5093683;28;20256;-88
2024/03/15 12:49:46;;;;;;;6.50;2.53;;;14.80;67.00;;;;;;5093569;28;20193;-87
2024/03/15 12:52:13;;;;;;;5.50;1.83;;;14.90;68.70;;;;;;5094688;28;20171;-87